sensor_id;sensor_type;location;lat;lon;timestamp;temperature;humidity
3275;DHT22;1649;53.672;10.064;2024-01-30T00:02:16;4.40;99.90
3275;DHT22;1649;53.672;10.064;2024-01-30T00:04:42;4.40;99.90
3275;DHT22;1649;53.672;10.064;2024-01-30T00:07:07;4.30;99.90
3275;DHT22;1649;53.672;10.064;2024-01-30T00:09:33;4.30;99.90
3275;DHT22;1649;53.672;10.064;2024-01-30T00:11:59;4.30;99.90
3275;DHT22;1649;53.672;10.064;2024-01-30T00:14:24;4.30;99.90
3275;DHT22;1649;53.672;10.064;2024-01-30T00:16:51;4.20;99.90
3275;DHT22;1649;53.672;10.064;2024-01-30T00:19:16;4.20;99.90
3275;DHT22;1649;53.672;10.064;2024-01-30T00:21:42;4.20;99.90
3275;DHT22;1649;53.672;10.064;2024-01-30T00:24:08;4.20;99.90
3275;DHT22;1649;53.672;10.064;2024-01-30T00:26:33;4.20;99.90
3275;DHT22;1649;53.672;10.064;2024-01-30T00:28:59;4.10;99.90
3275;DHT22;1649;53.672;10.064;2024-01-30T00:31:24;4.10;99.90
3275;DHT22;1649;53.672;10.064;2024-01-30T00:33:50;4.20;99.90
3275;DHT22;1649;53.672;10.064;2024-01-30T00:36:16;4.10;99.90
3275;DHT22;1649;53.672;10.064;2024-01-30T00:38:41;4.10;99.90
3275;DHT22;1649;53.672;10.064;2024-01-30T00:41:08;4.00;99.90
3275;DHT22;1649;53.672;10.064;2024-01-30T00:43:33;3.90;99.90
3275;DHT22;1649;53.672;10.064;2024-01-30T00:45:59;3.80;99.90
3275;DHT22;1649;53.672;10.064;2024-01-30T00:48:25;3.80;99.90
3275;DHT22;1649;53.672;10.064;2024-01-30T00:50:50;3.80;99.90
3275;DHT22;1649;53.672;10.064;2024-01-30T00:53:16;3.70;99.90
3275;DHT22;1649;53.672;10.064;2024-01-30T00:55:41;3.70;99.90
3275;DHT22;1649;53.672;10.064;2024-01-30T00:58:07;3.70;99.90
3275;DHT22;1649;53.672;10.064;2024-01-30T01:00:32;3.60;99.90
3275;DHT22;1649;53.672;10.064;2024-01-30T01:02:58;3.60;99.90
3275;DHT22;1649;53.672;10.064;2024-01-30T01:05:24;3.60;99.90
3275;DHT22;1649;53.672;10.064;2024-01-30T01:07:50;3.60;99.90
3275;DHT22;1649;53.672;10.064;2024-01-30T01:10:19;3.50;99.90
3275;DHT22;1649;53.672;10.064;2024-01-30T01:12:45;3.50;99.90
3275;DHT22;1649;53.672;10.064;2024-01-30T01:15:11;3.50;99.90
3275;DHT22;1649;53.672;10.064;2024-01-30T01:17:37;3.40;99.90
3275;DHT22;1649;53.672;10.064;2024-01-30T01:20:04;3.40;99.90
3275;DHT22;1649;53.672;10.064;2024-01-30T01:22:30;3.40;99.90
3275;DHT22;1649;53.672;10.064;2024-01-30T01:24:56;3.40;99.90
3275;DHT22;1649;53.672;10.064;2024-01-30T01:27:22;3.40;99.90
3275;DHT22;1649;53.672;10.064;2024-01-30T01:29:47;3.40;99.90
3275;DHT22;1649;53.672;10.064;2024-01-30T01:32:13;3.40;99.90
3275;DHT22;1649;53.672;10.064;2024-01-30T01:34:38;3.40;99.90
3275;DHT22;1649;53.672;10.064;2024-01-30T01:37:04;3.40;99.90
3275;DHT22;1649;53.672;10.064;2024-01-30T01:39:29;3.40;99.90
3275;DHT22;1649;53.672;10.064;2024-01-30T01:41:55;3.40;99.90
3275;DHT22;1649;53.672;10.064;2024-01-30T01:44:20;3.40;99.90
3275;DHT22;1649;53.672;10.064;2024-01-30T01:46:46;3.50;99.90
3275;DHT22;1649;53.672;10.064;2024-01-30T01:49:11;3.50;99.90
3275;DHT22;1649;53.672;10.064;2024-01-30T01:51:37;3.50;99.90
3275;DHT22;1649;53.672;10.064;2024-01-30T01:54:06;3.50;99.90
3275;DHT22;1649;53.672;10.064;2024-01-30T01:56:33;3.60;99.90
3275;DHT22;1649;53.672;10.064;2024-01-30T01:59:06;3.60;99.90
3275;DHT22;1649;53.672;10.064;2024-01-30T02:01:38;3.70;99.90
3275;DHT22;1649;53.672;10.064;2024-01-30T02:04:04;3.70;99.90
3275;DHT22;1649;53.672;10.064;2024-01-30T02:06:30;3.70;99.90
3275;DHT22;1649;53.672;10.064;2024-01-30T02:08:56;3.80;99.90
3275;DHT22;1649;53.672;10.064;2024-01-30T02:11:22;3.80;99.90
3275;DHT22;1649;53.672;10.064;2024-01-30T02:13:49;3.80;99.90
3275;DHT22;1649;53.672;10.064;2024-01-30T02:16:15;3.80;99.90
3275;DHT22;1649;53.672;10.064;2024-01-30T02:18:42;3.90;99.90
3275;DHT22;1649;53.672;10.064;2024-01-30T02:21:10;3.90;99.90
3275;DHT22;1649;53.672;10.064;2024-01-30T02:23:36;3.90;99.90
3275;DHT22;1649;53.672;10.064;2024-01-30T02:26:03;3.90;99.90
3275;DHT22;1649;53.672;10.064;2024-01-30T02:28:28;3.90;99.90
3275;DHT22;1649;53.672;10.064;2024-01-30T02:30:54;3.90;99.90
3275;DHT22;1649;53.672;10.064;2024-01-30T02:33:19;3.80;99.90
3275;DHT22;1649;53.672;10.064;2024-01-30T02:35:47;3.80;99.90
3275;DHT22;1649;53.672;10.064;2024-01-30T02:38:12;3.70;99.90
3275;DHT22;1649;53.672;10.064;2024-01-30T02:40:38;3.70;99.90
3275;DHT22;1649;53.672;10.064;2024-01-30T02:43:04;3.70;99.90
3275;DHT22;1649;53.672;10.064;2024-01-30T02:45:30;3.70;99.90
3275;DHT22;1649;53.672;10.064;2024-01-30T02:47:55;3.70;99.90
3275;DHT22;1649;53.672;10.064;2024-01-30T02:50:21;3.70;99.90
3275;DHT22;1649;53.672;10.064;2024-01-30T02:52:46;3.70;99.90
3275;DHT22;1649;53.672;10.064;2024-01-30T02:55:12;3.70;99.90
3275;DHT22;1649;53.672;10.064;2024-01-30T02:57:40;3.70;99.90
3275;DHT22;1649;53.672;10.064;2024-01-30T03:00:06;3.60;99.90
3275;DHT22;1649;53.672;10.064;2024-01-30T03:02:34;3.50;99.90
3275;DHT22;1649;53.672;10.064;2024-01-30T03:05:00;3.50;99.90
3275;DHT22;1649;53.672;10.064;2024-01-30T03:07:25;3.40;99.90
3275;DHT22;1649;53.672;10.064;2024-01-30T03:09:51;3.40;99.90
3275;DHT22;1649;53.672;10.064;2024-01-30T03:12:16;3.40;99.90
3275;DHT22;1649;53.672;10.064;2024-01-30T03:14:42;3.40;99.90
3275;DHT22;1649;53.672;10.064;2024-01-30T03:17:07;3.40;99.90
3275;DHT22;1649;53.672;10.064;2024-01-30T03:19:33;3.30;99.90
3275;DHT22;1649;53.672;10.064;2024-01-30T03:21:59;3.30;99.90
3275;DHT22;1649;53.672;10.064;2024-01-30T03:24:24;3.30;99.90
3275;DHT22;1649;53.672;10.064;2024-01-30T03:26:50;3.30;99.90
3275;DHT22;1649;53.672;10.064;2024-01-30T03:29:15;3.20;99.90
3275;DHT22;1649;53.672;10.064;2024-01-30T03:31:41;3.20;99.90
3275;DHT22;1649;53.672;10.064;2024-01-30T03:34:06;3.10;99.90
3275;DHT22;1649;53.672;10.064;2024-01-30T03:36:32;3.10;99.90
3275;DHT22;1649;53.672;10.064;2024-01-30T03:38:59;3.10;99.90
3275;DHT22;1649;53.672;10.064;2024-01-30T03:41:25;3.10;99.90
3275;DHT22;1649;53.672;10.064;2024-01-30T03:43:51;3.10;99.90
3275;DHT22;1649;53.672;10.064;2024-01-30T03:46:16;3.10;99.90
3275;DHT22;1649;53.672;10.064;2024-01-30T03:48:42;3.00;99.90
3275;DHT22;1649;53.672;10.064;2024-01-30T03:51:08;3.00;99.90
3275;DHT22;1649;53.672;10.064;2024-01-30T03:53:33;3.00;99.90
3275;DHT22;1649;53.672;10.064;2024-01-30T03:55:59;3.10;99.90
3275;DHT22;1649;53.672;10.064;2024-01-30T03:58:24;3.20;99.90
3275;DHT22;1649;53.672;10.064;2024-01-30T04:00:50;3.20;99.90
3275;DHT22;1649;53.672;10.064;2024-01-30T04:03:15;3.20;99.90
3275;DHT22;1649;53.672;10.064;2024-01-30T04:05:41;3.20;99.90
3275;DHT22;1649;53.672;10.064;2024-01-30T04:08:07;3.30;99.90
3275;DHT22;1649;53.672;10.064;2024-01-30T04:10:33;3.30;99.90
3275;DHT22;1649;53.672;10.064;2024-01-30T04:12:59;3.40;99.90
3275;DHT22;1649;53.672;10.064;2024-01-30T04:15:25;3.40;99.90
3275;DHT22;1649;53.672;10.064;2024-01-30T04:17:50;3.40;99.90
3275;DHT22;1649;53.672;10.064;2024-01-30T04:20:16;3.30;99.90
3275;DHT22;1649;53.672;10.064;2024-01-30T04:22:43;3.30;99.90
3275;DHT22;1649;53.672;10.064;2024-01-30T04:25:09;3.30;99.90
3275;DHT22;1649;53.672;10.064;2024-01-30T04:27:35;3.20;99.90
3275;DHT22;1649;53.672;10.064;2024-01-30T04:30:00;3.10;99.90
3275;DHT22;1649;53.672;10.064;2024-01-30T04:32:25;3.10;99.90
3275;DHT22;1649;53.672;10.064;2024-01-30T04:34:51;3.00;99.90
3275;DHT22;1649;53.672;10.064;2024-01-30T04:37:16;2.90;99.90
3275;DHT22;1649;53.672;10.064;2024-01-30T04:39:42;3.00;99.90
3275;DHT22;1649;53.672;10.064;2024-01-30T04:42:08;2.90;99.90
3275;DHT22;1649;53.672;10.064;2024-01-30T04:44:33;2.90;99.90
3275;DHT22;1649;53.672;10.064;2024-01-30T04:46:59;2.90;99.90
3275;DHT22;1649;53.672;10.064;2024-01-30T04:49:27;2.90;99.90
3275;DHT22;1649;53.672;10.064;2024-01-30T04:51:52;2.80;99.90
3275;DHT22;1649;53.672;10.064;2024-01-30T04:54:18;2.70;99.90
3275;DHT22;1649;53.672;10.064;2024-01-30T04:56:43;2.70;99.90
3275;DHT22;1649;53.672;10.064;2024-01-30T04:59:09;2.80;99.90
3275;DHT22;1649;53.672;10.064;2024-01-30T05:01:34;2.90;99.90
3275;DHT22;1649;53.672;10.064;2024-01-30T05:04:00;2.90;99.90
3275;DHT22;1649;53.672;10.064;2024-01-30T05:06:27;2.90;99.90
3275;DHT22;1649;53.672;10.064;2024-01-30T05:08:52;2.90;99.90
3275;DHT22;1649;53.672;10.064;2024-01-30T05:11:18;2.90;99.90
3275;DHT22;1649;53.672;10.064;2024-01-30T05:13:43;3.00;99.90
3275;DHT22;1649;53.672;10.064;2024-01-30T05:16:09;3.10;99.90
3275;DHT22;1649;53.672;10.064;2024-01-30T05:18:34;3.10;99.90
3275;DHT22;1649;53.672;10.064;2024-01-30T05:21:00;3.10;99.90
3275;DHT22;1649;53.672;10.064;2024-01-30T05:23:25;3.10;99.90
3275;DHT22;1649;53.672;10.064;2024-01-30T05:25:51;3.20;99.90
3275;DHT22;1649;53.672;10.064;2024-01-30T05:28:16;3.20;99.90
3275;DHT22;1649;53.672;10.064;2024-01-30T05:30:42;3.20;99.90
3275;DHT22;1649;53.672;10.064;2024-01-30T05:33:07;3.30;99.90
3275;DHT22;1649;53.672;10.064;2024-01-30T05:35:33;3.30;99.90
3275;DHT22;1649;53.672;10.064;2024-01-30T05:37:58;3.40;99.90
3275;DHT22;1649;53.672;10.064;2024-01-30T05:40:24;3.40;99.90
3275;DHT22;1649;53.672;10.064;2024-01-30T05:42:49;3.50;99.90
3275;DHT22;1649;53.672;10.064;2024-01-30T05:45:15;3.50;99.90
3275;DHT22;1649;53.672;10.064;2024-01-30T05:47:40;3.60;99.90
3275;DHT22;1649;53.672;10.064;2024-01-30T05:50:06;3.60;99.90
3275;DHT22;1649;53.672;10.064;2024-01-30T05:52:32;3.60;99.90
3275;DHT22;1649;53.672;10.064;2024-01-30T05:54:57;3.60;99.90
3275;DHT22;1649;53.672;10.064;2024-01-30T05:57:23;3.60;99.90
3275;DHT22;1649;53.672;10.064;2024-01-30T05:59:48;3.60;99.90
3275;DHT22;1649;53.672;10.064;2024-01-30T06:02:14;3.60;99.90
3275;DHT22;1649;53.672;10.064;2024-01-30T06:04:39;3.60;99.90
3275;DHT22;1649;53.672;10.064;2024-01-30T06:07:05;3.60;99.90
3275;DHT22;1649;53.672;10.064;2024-01-30T06:09:31;3.60;99.90
3275;DHT22;1649;53.672;10.064;2024-01-30T06:11:57;3.60;99.90
3275;DHT22;1649;53.672;10.064;2024-01-30T06:14:22;3.70;99.90
3275;DHT22;1649;53.672;10.064;2024-01-30T06:16:48;3.70;99.90
3275;DHT22;1649;53.672;10.064;2024-01-30T06:19:14;3.70;99.90
3275;DHT22;1649;53.672;10.064;2024-01-30T06:21:39;3.70;99.90
3275;DHT22;1649;53.672;10.064;2024-01-30T06:24:05;3.80;99.90
3275;DHT22;1649;53.672;10.064;2024-01-30T06:26:30;3.80;99.90
3275;DHT22;1649;53.672;10.064;2024-01-30T06:28:56;3.70;99.90
3275;DHT22;1649;53.672;10.064;2024-01-30T06:31:21;3.80;99.90
3275;DHT22;1649;53.672;10.064;2024-01-30T06:33:47;3.80;99.90
3275;DHT22;1649;53.672;10.064;2024-01-30T06:36:13;3.80;99.90
3275;DHT22;1649;53.672;10.064;2024-01-30T06:38:40;3.80;99.90
3275;DHT22;1649;53.672;10.064;2024-01-30T06:41:05;3.80;99.90
3275;DHT22;1649;53.672;10.064;2024-01-30T06:43:31;3.90;99.90
3275;DHT22;1649;53.672;10.064;2024-01-30T06:45:56;3.90;99.90
3275;DHT22;1649;53.672;10.064;2024-01-30T06:48:22;3.90;99.90
3275;DHT22;1649;53.672;10.064;2024-01-30T06:50:47;4.00;99.90
3275;DHT22;1649;53.672;10.064;2024-01-30T06:53:14;4.10;99.90
3275;DHT22;1649;53.672;10.064;2024-01-30T06:55:40;4.10;99.90
3275;DHT22;1649;53.672;10.064;2024-01-30T06:58:05;4.10;99.90
3275;DHT22;1649;53.672;10.064;2024-01-30T07:00:31;4.20;99.90
3275;DHT22;1649;53.672;10.064;2024-01-30T07:02:56;4.20;99.90
3275;DHT22;1649;53.672;10.064;2024-01-30T07:05:22;4.10;99.90
3275;DHT22;1649;53.672;10.064;2024-01-30T07:07:47;4.10;99.90
3275;DHT22;1649;53.672;10.064;2024-01-30T07:10:13;4.20;99.90
3275;DHT22;1649;53.672;10.064;2024-01-30T07:12:38;4.10;99.90
3275;DHT22;1649;53.672;10.064;2024-01-30T07:15:04;4.10;99.90
3275;DHT22;1649;53.672;10.064;2024-01-30T07:17:33;4.10;99.90
3275;DHT22;1649;53.672;10.064;2024-01-30T07:19:59;4.00;99.90
3275;DHT22;1649;53.672;10.064;2024-01-30T07:22:24;4.00;99.90
3275;DHT22;1649;53.672;10.064;2024-01-30T07:24:50;4.00;99.90
3275;DHT22;1649;53.672;10.064;2024-01-30T07:27:17;4.00;99.90
3275;DHT22;1649;53.672;10.064;2024-01-30T07:29:43;4.00;99.90
3275;DHT22;1649;53.672;10.064;2024-01-30T07:32:09;4.00;99.90
3275;DHT22;1649;53.672;10.064;2024-01-30T07:34:34;4.00;99.90
3275;DHT22;1649;53.672;10.064;2024-01-30T07:36:59;4.10;99.90
3275;DHT22;1649;53.672;10.064;2024-01-30T07:39:25;4.10;99.90
3275;DHT22;1649;53.672;10.064;2024-01-30T07:41:50;4.10;99.90
3275;DHT22;1649;53.672;10.064;2024-01-30T07:44:16;4.20;99.90
3275;DHT22;1649;53.672;10.064;2024-01-30T07:46:41;4.10;99.90
3275;DHT22;1649;53.672;10.064;2024-01-30T07:49:07;4.10;99.90
3275;DHT22;1649;53.672;10.064;2024-01-30T07:51:32;4.20;99.90
3275;DHT22;1649;53.672;10.064;2024-01-30T07:53:58;4.30;99.90
3275;DHT22;1649;53.672;10.064;2024-01-30T07:56:24;4.30;99.90
3275;DHT22;1649;53.672;10.064;2024-01-30T07:58:49;4.40;99.90
3275;DHT22;1649;53.672;10.064;2024-01-30T08:01:15;4.40;99.90
3275;DHT22;1649;53.672;10.064;2024-01-30T08:03:41;4.40;99.90
3275;DHT22;1649;53.672;10.064;2024-01-30T08:06:07;4.50;99.90
3275;DHT22;1649;53.672;10.064;2024-01-30T08:08:32;4.50;99.90
3275;DHT22;1649;53.672;10.064;2024-01-30T08:10:58;4.60;99.90
3275;DHT22;1649;53.672;10.064;2024-01-30T08:13:23;4.60;99.90
3275;DHT22;1649;53.672;10.064;2024-01-30T08:15:49;4.70;99.90
3275;DHT22;1649;53.672;10.064;2024-01-30T08:18:14;4.70;99.90
3275;DHT22;1649;53.672;10.064;2024-01-30T08:20:40;4.70;99.90
3275;DHT22;1649;53.672;10.064;2024-01-30T08:23:05;4.80;99.90
3275;DHT22;1649;53.672;10.064;2024-01-30T08:25:31;4.90;99.90
3275;DHT22;1649;53.672;10.064;2024-01-30T08:27:57;4.90;99.90
3275;DHT22;1649;53.672;10.064;2024-01-30T08:30:22;4.90;99.90
3275;DHT22;1649;53.672;10.064;2024-01-30T08:32:48;5.00;99.90
3275;DHT22;1649;53.672;10.064;2024-01-30T08:35:13;5.00;99.90
3275;DHT22;1649;53.672;10.064;2024-01-30T08:37:41;5.10;99.90
3275;DHT22;1649;53.672;10.064;2024-01-30T08:40:08;5.10;99.90
3275;DHT22;1649;53.672;10.064;2024-01-30T08:42:34;5.20;99.90
3275;DHT22;1649;53.672;10.064;2024-01-30T08:44:59;5.30;99.90
3275;DHT22;1649;53.672;10.064;2024-01-30T08:47:25;5.40;99.90
3275;DHT22;1649;53.672;10.064;2024-01-30T08:49:51;5.60;99.90
3275;DHT22;1649;53.672;10.064;2024-01-30T08:52:16;5.70;99.90
3275;DHT22;1649;53.672;10.064;2024-01-30T08:54:42;5.70;99.90
3275;DHT22;1649;53.672;10.064;2024-01-30T08:57:08;5.80;99.90
3275;DHT22;1649;53.672;10.064;2024-01-30T08:59:33;5.80;99.90
3275;DHT22;1649;53.672;10.064;2024-01-30T09:01:59;5.80;99.90
3275;DHT22;1649;53.672;10.064;2024-01-30T09:04:25;5.80;99.90
3275;DHT22;1649;53.672;10.064;2024-01-30T09:06:50;5.90;99.90
3275;DHT22;1649;53.672;10.064;2024-01-30T09:09:16;6.10;99.90
3275;DHT22;1649;53.672;10.064;2024-01-30T09:11:43;6.30;99.90
3275;DHT22;1649;53.672;10.064;2024-01-30T09:14:08;6.40;99.90
3275;DHT22;1649;53.672;10.064;2024-01-30T09:16:34;6.60;99.90
3275;DHT22;1649;53.672;10.064;2024-01-30T09:18:59;6.70;99.90
3275;DHT22;1649;53.672;10.064;2024-01-30T09:21:25;6.60;99.90
3275;DHT22;1649;53.672;10.064;2024-01-30T09:23:54;6.60;99.90
3275;DHT22;1649;53.672;10.064;2024-01-30T09:26:19;6.60;99.90
3275;DHT22;1649;53.672;10.064;2024-01-30T09:28:45;6.70;99.90
3275;DHT22;1649;53.672;10.064;2024-01-30T09:31:13;6.80;99.90
3275;DHT22;1649;53.672;10.064;2024-01-30T09:33:39;6.90;99.90
3275;DHT22;1649;53.672;10.064;2024-01-30T09:36:08;6.90;99.90
3275;DHT22;1649;53.672;10.064;2024-01-30T09:38:33;7.00;99.90
3275;DHT22;1649;53.672;10.064;2024-01-30T09:41:03;7.10;99.90
3275;DHT22;1649;53.672;10.064;2024-01-30T09:43:33;7.10;99.90
3275;DHT22;1649;53.672;10.064;2024-01-30T09:46:02;7.10;99.90
3275;DHT22;1649;53.672;10.064;2024-01-30T09:48:30;7.10;99.90
3275;DHT22;1649;53.672;10.064;2024-01-30T09:50:57;7.10;99.90
3275;DHT22;1649;53.672;10.064;2024-01-30T09:53:22;7.20;99.90
3275;DHT22;1649;53.672;10.064;2024-01-30T09:55:50;7.20;99.90
3275;DHT22;1649;53.672;10.064;2024-01-30T09:58:16;7.30;99.90
3275;DHT22;1649;53.672;10.064;2024-01-30T10:00:41;7.30;99.90
3275;DHT22;1649;53.672;10.064;2024-01-30T10:03:08;7.40;99.90
3275;DHT22;1649;53.672;10.064;2024-01-30T10:05:35;7.40;99.90
3275;DHT22;1649;53.672;10.064;2024-01-30T10:08:06;7.50;99.90
3275;DHT22;1649;53.672;10.064;2024-01-30T10:10:32;7.50;99.90
3275;DHT22;1649;53.672;10.064;2024-01-30T10:12:57;7.60;99.90
3275;DHT22;1649;53.672;10.064;2024-01-30T10:15:23;7.70;99.90
3275;DHT22;1649;53.672;10.064;2024-01-30T10:17:49;7.80;99.90
3275;DHT22;1649;53.672;10.064;2024-01-30T10:20:14;7.90;99.90
3275;DHT22;1649;53.672;10.064;2024-01-30T10:22:41;7.90;99.90
3275;DHT22;1649;53.672;10.064;2024-01-30T10:25:09;7.90;99.90
3275;DHT22;1649;53.672;10.064;2024-01-30T10:27:35;8.00;99.90
3275;DHT22;1649;53.672;10.064;2024-01-30T10:30:00;8.00;99.90
3275;DHT22;1649;53.672;10.064;2024-01-30T10:32:27;8.00;99.90
3275;DHT22;1649;53.672;10.064;2024-01-30T10:34:52;8.00;99.90
3275;DHT22;1649;53.672;10.064;2024-01-30T10:37:19;8.00;99.90
3275;DHT22;1649;53.672;10.064;2024-01-30T10:39:46;8.00;99.90
3275;DHT22;1649;53.672;10.064;2024-01-30T10:42:25;8.10;99.90
3275;DHT22;1649;53.672;10.064;2024-01-30T10:45:06;8.10;99.90
3275;DHT22;1649;53.672;10.064;2024-01-30T10:47:34;8.20;99.90
3275;DHT22;1649;53.672;10.064;2024-01-30T10:50:04;8.30;99.90
3275;DHT22;1649;53.672;10.064;2024-01-30T10:52:30;8.30;99.90
3275;DHT22;1649;53.672;10.064;2024-01-30T10:54:56;8.30;99.90
3275;DHT22;1649;53.672;10.064;2024-01-30T10:57:26;8.30;99.90
3275;DHT22;1649;53.672;10.064;2024-01-30T10:59:59;8.30;99.90
3275;DHT22;1649;53.672;10.064;2024-01-30T11:02:26;8.30;99.90
3275;DHT22;1649;53.672;10.064;2024-01-30T11:04:58;8.40;99.90
3275;DHT22;1649;53.672;10.064;2024-01-30T11:07:26;8.40;99.90
3275;DHT22;1649;53.672;10.064;2024-01-30T11:09:54;8.40;99.90
3275;DHT22;1649;53.672;10.064;2024-01-30T11:12:28;8.40;99.90
3275;DHT22;1649;53.672;10.064;2024-01-30T11:15:04;8.50;99.90
3275;DHT22;1649;53.672;10.064;2024-01-30T11:18:00;8.60;99.90
3275;DHT22;1649;53.672;10.064;2024-01-30T11:20:29;8.50;99.90
3275;DHT22;1649;53.672;10.064;2024-01-30T11:22:58;8.60;99.90
3275;DHT22;1649;53.672;10.064;2024-01-30T11:25:25;8.60;99.90
3275;DHT22;1649;53.672;10.064;2024-01-30T11:27:55;8.60;99.90
3275;DHT22;1649;53.672;10.064;2024-01-30T11:30:24;8.70;99.90
3275;DHT22;1649;53.672;10.064;2024-01-30T11:33:06;8.70;99.90
3275;DHT22;1649;53.672;10.064;2024-01-30T11:35:33;8.70;99.90
3275;DHT22;1649;53.672;10.064;2024-01-30T11:38:00;8.70;99.90
3275;DHT22;1649;53.672;10.064;2024-01-30T11:40:29;8.80;99.90
3275;DHT22;1649;53.672;10.064;2024-01-30T11:43:00;8.70;99.90
3275;DHT22;1649;53.672;10.064;2024-01-30T11:45:27;8.70;99.90
3275;DHT22;1649;53.672;10.064;2024-01-30T11:47:53;8.70;99.90
3275;DHT22;1649;53.672;10.064;2024-01-30T11:50:19;8.70;99.90
3275;DHT22;1649;53.672;10.064;2024-01-30T11:52:44;8.80;99.90
3275;DHT22;1649;53.672;10.064;2024-01-30T11:55:10;8.70;99.90
3275;DHT22;1649;53.672;10.064;2024-01-30T11:57:36;8.70;99.90
3275;DHT22;1649;53.672;10.064;2024-01-30T12:00:03;8.70;99.90
3275;DHT22;1649;53.672;10.064;2024-01-30T12:02:36;8.80;99.90
3275;DHT22;1649;53.672;10.064;2024-01-30T12:05:06;8.80;99.90
3275;DHT22;1649;53.672;10.064;2024-01-30T12:07:35;8.90;99.90
3275;DHT22;1649;53.672;10.064;2024-01-30T12:10:01;8.90;99.90
3275;DHT22;1649;53.672;10.064;2024-01-30T12:12:28;8.90;99.90
3275;DHT22;1649;53.672;10.064;2024-01-30T12:14:55;8.80;99.90
3275;DHT22;1649;53.672;10.064;2024-01-30T12:17:31;8.70;99.90
3275;DHT22;1649;53.672;10.064;2024-01-30T12:22:30;8.80;99.90
3275;DHT22;1649;53.672;10.064;2024-01-30T12:24:55;8.80;99.90
3275;DHT22;1649;53.672;10.064;2024-01-30T12:27:21;8.80;99.90
3275;DHT22;1649;53.672;10.064;2024-01-30T12:29:46;8.80;99.90
3275;DHT22;1649;53.672;10.064;2024-01-30T12:32:16;8.80;99.90
3275;DHT22;1649;53.672;10.064;2024-01-30T12:34:42;8.80;99.90
3275;DHT22;1649;53.672;10.064;2024-01-30T12:37:07;8.90;99.90
3275;DHT22;1649;53.672;10.064;2024-01-30T12:39:35;8.90;99.90
3275;DHT22;1649;53.672;10.064;2024-01-30T12:42:00;8.90;99.90
3275;DHT22;1649;53.672;10.064;2024-01-30T12:44:26;8.90;99.90
3275;DHT22;1649;53.672;10.064;2024-01-30T12:46:51;8.90;99.90
3275;DHT22;1649;53.672;10.064;2024-01-30T12:49:17;8.90;99.90
3275;DHT22;1649;53.672;10.064;2024-01-30T12:51:42;8.90;99.90
3275;DHT22;1649;53.672;10.064;2024-01-30T12:54:08;9.00;99.90
3275;DHT22;1649;53.672;10.064;2024-01-30T12:56:33;9.00;99.90
3275;DHT22;1649;53.672;10.064;2024-01-30T12:58:59;9.10;99.90
3275;DHT22;1649;53.672;10.064;2024-01-30T13:01:24;9.10;99.90
3275;DHT22;1649;53.672;10.064;2024-01-30T13:03:50;9.10;99.90
3275;DHT22;1649;53.672;10.064;2024-01-30T13:06:16;9.10;99.90
3275;DHT22;1649;53.672;10.064;2024-01-30T13:08:41;9.20;99.90
3275;DHT22;1649;53.672;10.064;2024-01-30T13:11:07;9.20;99.90
3275;DHT22;1649;53.672;10.064;2024-01-30T13:13:32;9.30;99.90
3275;DHT22;1649;53.672;10.064;2024-01-30T13:15:58;9.30;99.90
3275;DHT22;1649;53.672;10.064;2024-01-30T13:18:23;9.30;99.90
3275;DHT22;1649;53.672;10.064;2024-01-30T13:20:49;9.40;99.90
3275;DHT22;1649;53.672;10.064;2024-01-30T13:23:14;9.30;99.90
3275;DHT22;1649;53.672;10.064;2024-01-30T13:25:40;9.30;99.90
3275;DHT22;1649;53.672;10.064;2024-01-30T13:28:05;9.40;99.90
3275;DHT22;1649;53.672;10.064;2024-01-30T13:30:31;9.30;99.90
3275;DHT22;1649;53.672;10.064;2024-01-30T13:32:56;9.40;99.90
3275;DHT22;1649;53.672;10.064;2024-01-30T13:35:22;9.40;99.90
3275;DHT22;1649;53.672;10.064;2024-01-30T13:37:47;9.40;99.90
3275;DHT22;1649;53.672;10.064;2024-01-30T13:40:13;9.30;99.90
3275;DHT22;1649;53.672;10.064;2024-01-30T13:42:39;9.30;99.90
3275;DHT22;1649;53.672;10.064;2024-01-30T13:45:05;9.30;99.90
3275;DHT22;1649;53.672;10.064;2024-01-30T13:47:31;9.30;99.90
3275;DHT22;1649;53.672;10.064;2024-01-30T13:49:57;9.20;99.90
3275;DHT22;1649;53.672;10.064;2024-01-30T13:52:22;9.20;99.90
3275;DHT22;1649;53.672;10.064;2024-01-30T13:54:48;9.10;99.90
3275;DHT22;1649;53.672;10.064;2024-01-30T13:57:13;9.10;99.90
3275;DHT22;1649;53.672;10.064;2024-01-30T13:59:39;9.00;99.90
3275;DHT22;1649;53.672;10.064;2024-01-30T14:02:04;9.00;99.90
3275;DHT22;1649;53.672;10.064;2024-01-30T14:04:31;9.00;99.90
3275;DHT22;1649;53.672;10.064;2024-01-30T14:06:56;9.00;99.90
3275;DHT22;1649;53.672;10.064;2024-01-30T14:09:22;9.00;99.90
3275;DHT22;1649;53.672;10.064;2024-01-30T14:11:47;9.00;99.90
3275;DHT22;1649;53.672;10.064;2024-01-30T14:14:13;9.10;99.90
3275;DHT22;1649;53.672;10.064;2024-01-30T14:16:38;9.10;99.90
3275;DHT22;1649;53.672;10.064;2024-01-30T14:19:04;9.10;99.90
3275;DHT22;1649;53.672;10.064;2024-01-30T14:21:29;9.10;99.90
3275;DHT22;1649;53.672;10.064;2024-01-30T14:23:55;9.10;99.90
3275;DHT22;1649;53.672;10.064;2024-01-30T14:26:20;9.10;99.90
3275;DHT22;1649;53.672;10.064;2024-01-30T14:28:46;9.10;99.90
3275;DHT22;1649;53.672;10.064;2024-01-30T14:31:12;9.10;99.90
3275;DHT22;1649;53.672;10.064;2024-01-30T14:33:37;9.10;99.90
3275;DHT22;1649;53.672;10.064;2024-01-30T14:36:03;9.10;99.90
3275;DHT22;1649;53.672;10.064;2024-01-30T14:38:29;9.20;99.90
3275;DHT22;1649;53.672;10.064;2024-01-30T14:40:54;9.20;99.90
3275;DHT22;1649;53.672;10.064;2024-01-30T14:43:20;9.20;99.90
3275;DHT22;1649;53.672;10.064;2024-01-30T14:45:46;9.20;99.90
3275;DHT22;1649;53.672;10.064;2024-01-30T14:48:15;9.20;99.90
3275;DHT22;1649;53.672;10.064;2024-01-30T14:50:40;9.20;99.90
3275;DHT22;1649;53.672;10.064;2024-01-30T14:53:06;9.20;99.90
3275;DHT22;1649;53.672;10.064;2024-01-30T14:55:32;9.20;99.90
3275;DHT22;1649;53.672;10.064;2024-01-30T14:57:57;9.30;99.90
3275;DHT22;1649;53.672;10.064;2024-01-30T15:00:24;9.30;99.90
3275;DHT22;1649;53.672;10.064;2024-01-30T15:02:50;9.30;99.90
3275;DHT22;1649;53.672;10.064;2024-01-30T15:05:15;9.30;99.90
3275;DHT22;1649;53.672;10.064;2024-01-30T15:07:41;9.30;99.90
3275;DHT22;1649;53.672;10.064;2024-01-30T15:10:10;9.30;99.90
3275;DHT22;1649;53.672;10.064;2024-01-30T15:12:36;9.30;99.90
3275;DHT22;1649;53.672;10.064;2024-01-30T15:15:02;9.40;99.90
3275;DHT22;1649;53.672;10.064;2024-01-30T15:17:28;9.40;99.90
3275;DHT22;1649;53.672;10.064;2024-01-30T15:19:53;9.40;99.90
3275;DHT22;1649;53.672;10.064;2024-01-30T15:22:19;9.40;99.90
3275;DHT22;1649;53.672;10.064;2024-01-30T15:24:44;9.40;99.90
3275;DHT22;1649;53.672;10.064;2024-01-30T15:27:10;9.40;99.90
3275;DHT22;1649;53.672;10.064;2024-01-30T15:29:35;9.40;99.90
3275;DHT22;1649;53.672;10.064;2024-01-30T15:32:01;9.50;99.90
3275;DHT22;1649;53.672;10.064;2024-01-30T15:34:26;9.40;99.90
3275;DHT22;1649;53.672;10.064;2024-01-30T15:36:52;9.40;99.90
3275;DHT22;1649;53.672;10.064;2024-01-30T15:39:17;9.40;99.90
3275;DHT22;1649;53.672;10.064;2024-01-30T15:41:43;9.40;99.90
3275;DHT22;1649;53.672;10.064;2024-01-30T15:44:09;9.40;99.90
3275;DHT22;1649;53.672;10.064;2024-01-30T15:46:34;9.30;99.90
3275;DHT22;1649;53.672;10.064;2024-01-30T15:49:00;9.40;99.90
3275;DHT22;1649;53.672;10.064;2024-01-30T15:51:26;9.40;99.90
3275;DHT22;1649;53.672;10.064;2024-01-30T15:53:52;9.40;99.90
3275;DHT22;1649;53.672;10.064;2024-01-30T15:56:18;9.40;99.90
3275;DHT22;1649;53.672;10.064;2024-01-30T15:58:44;9.40;99.90